sensor_id;sensor_type;location;lat;lon;timestamp;temperature;humidity
47521;DHT22;32291;52.010;4.446;2023-05-14T00:00:21;11.40;99.90
47521;DHT22;32291;52.010;4.446;2023-05-14T00:01:22;11.40;99.90
47521;DHT22;32291;52.010;4.446;2023-05-14T00:02:25;11.30;99.90
47521;DHT22;32291;52.010;4.446;2023-05-14T00:03:27;11.30;99.90
47521;DHT22;32291;52.010;4.446;2023-05-14T00:04:29;11.30;99.90
47521;DHT22;32291;52.010;4.446;2023-05-14T00:05:31;11.30;99.90
47521;DHT22;32291;52.010;4.446;2023-05-14T00:06:32;11.30;99.90
47521;DHT22;32291;52.010;4.446;2023-05-14T00:07:34;11.30;99.90
47521;DHT22;32291;52.010;4.446;2023-05-14T00:08:36;11.30;99.90
47521;DHT22;32291;52.010;4.446;2023-05-14T00:09:37;11.30;99.90
47521;DHT22;32291;52.010;4.446;2023-05-14T00:10:39;11.30;99.90
47521;DHT22;32291;52.010;4.446;2023-05-14T00:11:41;11.30;99.90
47521;DHT22;32291;52.010;4.446;2023-05-14T00:12:43;11.30;99.90
47521;DHT22;32291;52.010;4.446;2023-05-14T00:13:44;11.20;99.90
47521;DHT22;32291;52.010;4.446;2023-05-14T00:14:46;11.20;99.90
47521;DHT22;32291;52.010;4.446;2023-05-14T00:15:47;11.20;99.90
47521;DHT22;32291;52.010;4.446;2023-05-14T00:16:49;11.20;99.90
47521;DHT22;32291;52.010;4.446;2023-05-14T00:17:51;11.20;99.90
47521;DHT22;32291;52.010;4.446;2023-05-14T00:18:53;11.20;99.90
47521;DHT22;32291;52.010;4.446;2023-05-14T00:19:55;11.20;99.90
47521;DHT22;32291;52.010;4.446;2023-05-14T00:20:57;11.20;99.90
47521;DHT22;32291;52.010;4.446;2023-05-14T00:21:59;11.20;99.90
47521;DHT22;32291;52.010;4.446;2023-05-14T00:23:00;11.20;99.90
47521;DHT22;32291;52.010;4.446;2023-05-14T00:24:02;11.20;99.90
47521;DHT22;32291;52.010;4.446;2023-05-14T00:25:06;11.20;99.90
47521;DHT22;32291;52.010;4.446;2023-05-14T00:26:08;11.10;99.90
47521;DHT22;32291;52.010;4.446;2023-05-14T00:27:09;11.10;99.90
47521;DHT22;32291;52.010;4.446;2023-05-14T00:28:11;11.10;99.90
47521;DHT22;32291;52.010;4.446;2023-05-14T00:29:13;11.20;99.90
47521;DHT22;32291;52.010;4.446;2023-05-14T00:30:14;11.10;99.90
47521;DHT22;32291;52.010;4.446;2023-05-14T00:31:16;11.10;99.90
47521;DHT22;32291;52.010;4.446;2023-05-14T00:32:18;11.10;99.90
47521;DHT22;32291;52.010;4.446;2023-05-14T00:33:20;11.10;99.90
47521;DHT22;32291;52.010;4.446;2023-05-14T00:34:21;11.10;99.90
47521;DHT22;32291;52.010;4.446;2023-05-14T00:35:23;11.10;99.90
47521;DHT22;32291;52.010;4.446;2023-05-14T00:36:25;11.00;99.90
47521;DHT22;32291;52.010;4.446;2023-05-14T00:37:27;11.00;99.90
47521;DHT22;32291;52.010;4.446;2023-05-14T00:38:29;11.00;99.90
47521;DHT22;32291;52.010;4.446;2023-05-14T00:39:31;10.90;99.90
47521;DHT22;32291;52.010;4.446;2023-05-14T00:40:33;10.90;99.90
47521;DHT22;32291;52.010;4.446;2023-05-14T00:41:35;10.90;99.90
47521;DHT22;32291;52.010;4.446;2023-05-14T00:42:37;10.90;99.90
47521;DHT22;32291;52.010;4.446;2023-05-14T00:43:40;10.80;99.90
47521;DHT22;32291;52.010;4.446;2023-05-14T00:44:41;10.80;99.90
47521;DHT22;32291;52.010;4.446;2023-05-14T00:45:43;10.90;99.90
47521;DHT22;32291;52.010;4.446;2023-05-14T00:46:46;10.90;99.90
47521;DHT22;32291;52.010;4.446;2023-05-14T00:47:48;10.80;99.90
47521;DHT22;32291;52.010;4.446;2023-05-14T00:48:50;10.90;99.90
47521;DHT22;32291;52.010;4.446;2023-05-14T00:49:52;10.90;99.90
47521;DHT22;32291;52.010;4.446;2023-05-14T00:50:54;10.90;99.90
47521;DHT22;32291;52.010;4.446;2023-05-14T00:51:57;10.90;99.90
47521;DHT22;32291;52.010;4.446;2023-05-14T00:53:00;10.90;99.90
47521;DHT22;32291;52.010;4.446;2023-05-14T00:54:02;10.90;99.90
47521;DHT22;32291;52.010;4.446;2023-05-14T00:55:05;10.90;99.90
47521;DHT22;32291;52.010;4.446;2023-05-14T00:56:08;10.90;99.90
47521;DHT22;32291;52.010;4.446;2023-05-14T00:57:11;10.90;99.90
47521;DHT22;32291;52.010;4.446;2023-05-14T00:58:13;10.90;99.90
47521;DHT22;32291;52.010;4.446;2023-05-14T00:59:15;10.90;99.90
47521;DHT22;32291;52.010;4.446;2023-05-14T01:00:17;10.90;99.90
47521;DHT22;32291;52.010;4.446;2023-05-14T01:01:18;10.90;99.90
47521;DHT22;32291;52.010;4.446;2023-05-14T01:02:20;10.90;99.90
47521;DHT22;32291;52.010;4.446;2023-05-14T01:03:22;10.90;99.90
47521;DHT22;32291;52.010;4.446;2023-05-14T01:04:24;10.90;99.90
47521;DHT22;32291;52.010;4.446;2023-05-14T01:05:34;10.90;99.90
47521;DHT22;32291;52.010;4.446;2023-05-14T01:10:20;10.80;99.90
47521;DHT22;32291;52.010;4.446;2023-05-14T01:11:35;10.80;99.90
47521;DHT22;32291;52.010;4.446;2023-05-14T01:14:24;10.80;99.90
47521;DHT22;32291;52.010;4.446;2023-05-14T01:15:31;10.70;99.90
47521;DHT22;32291;52.010;4.446;2023-05-14T01:16:36;10.70;99.90
47521;DHT22;32291;52.010;4.446;2023-05-14T01:18:06;10.70;99.90
47521;DHT22;32291;52.010;4.446;2023-05-14T01:19:31;10.70;99.90
47521;DHT22;32291;52.010;4.446;2023-05-14T01:20:38;10.70;99.90
47521;DHT22;32291;52.010;4.446;2023-05-14T01:21:42;10.60;99.90
47521;DHT22;32291;52.010;4.446;2023-05-14T01:22:44;10.60;99.90
47521;DHT22;32291;52.010;4.446;2023-05-14T01:23:46;10.60;99.90
47521;DHT22;32291;52.010;4.446;2023-05-14T01:24:48;10.70;99.90
47521;DHT22;32291;52.010;4.446;2023-05-14T01:25:50;10.60;99.90
47521;DHT22;32291;52.010;4.446;2023-05-14T01:26:53;10.70;99.90
47521;DHT22;32291;52.010;4.446;2023-05-14T01:28:27;10.60;99.90
47521;DHT22;32291;52.010;4.446;2023-05-14T01:29:36;10.60;99.90
47521;DHT22;32291;52.010;4.446;2023-05-14T01:31:54;10.60;99.90
47521;DHT22;32291;52.010;4.446;2023-05-14T01:33:01;10.50;99.90
47521;DHT22;32291;52.010;4.446;2023-05-14T01:34:08;10.50;99.90
47521;DHT22;32291;52.010;4.446;2023-05-14T01:35:11;10.60;99.90
47521;DHT22;32291;52.010;4.446;2023-05-14T01:36:14;10.60;99.90
47521;DHT22;32291;52.010;4.446;2023-05-14T01:37:17;10.60;99.90
47521;DHT22;32291;52.010;4.446;2023-05-14T01:38:20;10.60;99.90
47521;DHT22;32291;52.010;4.446;2023-05-14T01:39:24;10.50;99.90
47521;DHT22;32291;52.010;4.446;2023-05-14T01:40:27;10.50;99.90
47521;DHT22;32291;52.010;4.446;2023-05-14T01:41:31;10.50;99.90
47521;DHT22;32291;52.010;4.446;2023-05-14T01:42:33;10.50;99.90
47521;DHT22;32291;52.010;4.446;2023-05-14T01:43:36;10.50;99.90
47521;DHT22;32291;52.010;4.446;2023-05-14T01:44:39;10.40;99.90
47521;DHT22;32291;52.010;4.446;2023-05-14T01:45:42;10.40;99.90
47521;DHT22;32291;52.010;4.446;2023-05-14T01:46:44;10.40;99.90
47521;DHT22;32291;52.010;4.446;2023-05-14T01:47:46;10.40;99.90
47521;DHT22;32291;52.010;4.446;2023-05-14T01:48:48;10.40;99.90
47521;DHT22;32291;52.010;4.446;2023-05-14T01:49:51;10.40;99.90
47521;DHT22;32291;52.010;4.446;2023-05-14T01:50:53;10.40;99.90
47521;DHT22;32291;52.010;4.446;2023-05-14T01:51:54;10.30;99.90
47521;DHT22;32291;52.010;4.446;2023-05-14T01:52:57;10.30;99.90
47521;DHT22;32291;52.010;4.446;2023-05-14T01:53:58;10.30;99.90
47521;DHT22;32291;52.010;4.446;2023-05-14T01:55:00;10.30;99.90
47521;DHT22;32291;52.010;4.446;2023-05-14T01:56:02;10.30;99.90
47521;DHT22;32291;52.010;4.446;2023-05-14T01:57:03;10.20;99.90
47521;DHT22;32291;52.010;4.446;2023-05-14T01:58:05;10.20;99.90
47521;DHT22;32291;52.010;4.446;2023-05-14T01:59:07;10.20;99.90
47521;DHT22;32291;52.010;4.446;2023-05-14T02:00:09;10.10;99.90
47521;DHT22;32291;52.010;4.446;2023-05-14T02:01:12;10.10;99.90
47521;DHT22;32291;52.010;4.446;2023-05-14T02:02:13;10.20;99.90
47521;DHT22;32291;52.010;4.446;2023-05-14T02:03:15;10.10;99.90
47521;DHT22;32291;52.010;4.446;2023-05-14T02:04:17;10.10;99.90
47521;DHT22;32291;52.010;4.446;2023-05-14T02:05:21;10.10;99.90
47521;DHT22;32291;52.010;4.446;2023-05-14T02:06:23;10.10;99.90
47521;DHT22;32291;52.010;4.446;2023-05-14T02:07:25;10.10;99.90
47521;DHT22;32291;52.010;4.446;2023-05-14T02:08:27;10.10;99.90
47521;DHT22;32291;52.010;4.446;2023-05-14T02:09:28;10.10;99.90
47521;DHT22;32291;52.010;4.446;2023-05-14T02:10:31;10.20;99.90
47521;DHT22;32291;52.010;4.446;2023-05-14T02:11:33;10.20;99.90
47521;DHT22;32291;52.010;4.446;2023-05-14T02:12:34;10.20;99.90
47521;DHT22;32291;52.010;4.446;2023-05-14T02:13:36;10.20;99.90
47521;DHT22;32291;52.010;4.446;2023-05-14T02:14:38;10.20;99.90
47521;DHT22;32291;52.010;4.446;2023-05-14T02:15:40;10.20;99.90
47521;DHT22;32291;52.010;4.446;2023-05-14T02:16:42;10.30;99.90
47521;DHT22;32291;52.010;4.446;2023-05-14T02:17:44;10.30;99.90
47521;DHT22;32291;52.010;4.446;2023-05-14T02:18:46;10.30;99.90
47521;DHT22;32291;52.010;4.446;2023-05-14T02:19:48;10.30;99.90
47521;DHT22;32291;52.010;4.446;2023-05-14T02:20:49;10.40;99.90
47521;DHT22;32291;52.010;4.446;2023-05-14T02:21:51;10.40;99.90
47521;DHT22;32291;52.010;4.446;2023-05-14T02:22:52;10.40;99.90
47521;DHT22;32291;52.010;4.446;2023-05-14T02:23:54;10.40;99.90
47521;DHT22;32291;52.010;4.446;2023-05-14T02:24:56;10.40;99.90
47521;DHT22;32291;52.010;4.446;2023-05-14T02:25:58;10.40;99.90
47521;DHT22;32291;52.010;4.446;2023-05-14T02:27:00;10.40;99.90
47521;DHT22;32291;52.010;4.446;2023-05-14T02:28:02;10.40;99.90
47521;DHT22;32291;52.010;4.446;2023-05-14T02:29:04;10.40;99.90
47521;DHT22;32291;52.010;4.446;2023-05-14T02:30:06;10.40;99.90
47521;DHT22;32291;52.010;4.446;2023-05-14T02:31:08;10.40;99.90
47521;DHT22;32291;52.010;4.446;2023-05-14T02:32:10;10.40;99.90
47521;DHT22;32291;52.010;4.446;2023-05-14T02:33:11;10.40;99.90
47521;DHT22;32291;52.010;4.446;2023-05-14T02:34:13;10.40;99.90
47521;DHT22;32291;52.010;4.446;2023-05-14T02:35:15;10.40;99.90
47521;DHT22;32291;52.010;4.446;2023-05-14T02:36:17;10.40;99.90
47521;DHT22;32291;52.010;4.446;2023-05-14T02:37:19;10.40;99.90
47521;DHT22;32291;52.010;4.446;2023-05-14T02:38:21;10.40;99.90
47521;DHT22;32291;52.010;4.446;2023-05-14T02:39:24;10.40;99.90
47521;DHT22;32291;52.010;4.446;2023-05-14T02:40:25;10.40;99.90
47521;DHT22;32291;52.010;4.446;2023-05-14T02:41:27;10.40;99.90
47521;DHT22;32291;52.010;4.446;2023-05-14T02:42:29;10.40;99.90
47521;DHT22;32291;52.010;4.446;2023-05-14T02:43:30;10.40;99.90
47521;DHT22;32291;52.010;4.446;2023-05-14T02:44:32;10.50;99.90
47521;DHT22;32291;52.010;4.446;2023-05-14T02:45:34;10.40;99.90
47521;DHT22;32291;52.010;4.446;2023-05-14T02:46:36;10.40;99.90
47521;DHT22;32291;52.010;4.446;2023-05-14T02:47:38;10.30;99.90
47521;DHT22;32291;52.010;4.446;2023-05-14T02:48:40;10.30;99.90
47521;DHT22;32291;52.010;4.446;2023-05-14T02:49:41;10.30;99.90
47521;DHT22;32291;52.010;4.446;2023-05-14T02:50:43;10.40;99.90
47521;DHT22;32291;52.010;4.446;2023-05-14T02:51:44;10.30;99.90
47521;DHT22;32291;52.010;4.446;2023-05-14T02:52:46;10.30;99.90
47521;DHT22;32291;52.010;4.446;2023-05-14T02:53:48;10.30;99.90
47521;DHT22;32291;52.010;4.446;2023-05-14T02:54:50;10.40;99.90
47521;DHT22;32291;52.010;4.446;2023-05-14T02:55:52;10.30;99.90
47521;DHT22;32291;52.010;4.446;2023-05-14T02:56:54;10.30;99.90
47521;DHT22;32291;52.010;4.446;2023-05-14T02:57:56;10.30;99.90
47521;DHT22;32291;52.010;4.446;2023-05-14T02:58:57;10.30;99.90
47521;DHT22;32291;52.010;4.446;2023-05-14T02:59:59;10.30;99.90
47521;DHT22;32291;52.010;4.446;2023-05-14T03:01:00;10.30;99.90
47521;DHT22;32291;52.010;4.446;2023-05-14T03:02:02;10.30;99.90
47521;DHT22;32291;52.010;4.446;2023-05-14T03:03:04;10.30;99.90
47521;DHT22;32291;52.010;4.446;2023-05-14T03:04:06;10.30;99.90
47521;DHT22;32291;52.010;4.446;2023-05-14T03:05:07;10.30;99.90
47521;DHT22;32291;52.010;4.446;2023-05-14T03:06:09;10.30;99.90
47521;DHT22;32291;52.010;4.446;2023-05-14T03:07:11;10.30;99.90
47521;DHT22;32291;52.010;4.446;2023-05-14T03:08:13;10.30;99.90
47521;DHT22;32291;52.010;4.446;2023-05-14T03:09:15;10.30;99.90
47521;DHT22;32291;52.010;4.446;2023-05-14T03:10:17;10.30;99.90
47521;DHT22;32291;52.010;4.446;2023-05-14T03:11:18;10.30;99.90
47521;DHT22;32291;52.010;4.446;2023-05-14T03:12:20;10.30;99.90
47521;DHT22;32291;52.010;4.446;2023-05-14T03:13:22;10.20;99.90
47521;DHT22;32291;52.010;4.446;2023-05-14T03:14:23;10.30;99.90
47521;DHT22;32291;52.010;4.446;2023-05-14T03:15:25;10.30;99.90
47521;DHT22;32291;52.010;4.446;2023-05-14T03:16:27;10.30;99.90
47521;DHT22;32291;52.010;4.446;2023-05-14T03:17:28;10.20;99.90
47521;DHT22;32291;52.010;4.446;2023-05-14T03:18:30;10.20;99.90
47521;DHT22;32291;52.010;4.446;2023-05-14T03:19:33;10.20;99.90
47521;DHT22;32291;52.010;4.446;2023-05-14T03:20:35;10.20;99.90
47521;DHT22;32291;52.010;4.446;2023-05-14T03:21:36;10.30;99.90
47521;DHT22;32291;52.010;4.446;2023-05-14T03:22:38;10.20;99.90
47521;DHT22;32291;52.010;4.446;2023-05-14T03:23:40;10.30;99.90
47521;DHT22;32291;52.010;4.446;2023-05-14T03:24:42;10.30;99.90
47521;DHT22;32291;52.010;4.446;2023-05-14T03:25:43;10.30;99.90
47521;DHT22;32291;52.010;4.446;2023-05-14T03:26:45;10.30;99.90
47521;DHT22;32291;52.010;4.446;2023-05-14T03:27:47;10.20;99.90
47521;DHT22;32291;52.010;4.446;2023-05-14T03:28:49;10.20;99.90
47521;DHT22;32291;52.010;4.446;2023-05-14T03:29:51;10.20;99.90
47521;DHT22;32291;52.010;4.446;2023-05-14T03:30:54;10.20;99.90
47521;DHT22;32291;52.010;4.446;2023-05-14T03:31:56;10.20;99.90
47521;DHT22;32291;52.010;4.446;2023-05-14T03:32:58;10.20;99.90
47521;DHT22;32291;52.010;4.446;2023-05-14T03:34:00;10.20;99.90
47521;DHT22;32291;52.010;4.446;2023-05-14T03:35:02;10.20;99.90
47521;DHT22;32291;52.010;4.446;2023-05-14T03:36:04;10.10;99.90
47521;DHT22;32291;52.010;4.446;2023-05-14T03:37:05;10.10;99.90
47521;DHT22;32291;52.010;4.446;2023-05-14T03:38:07;10.10;99.90
47521;DHT22;32291;52.010;4.446;2023-05-14T03:39:09;10.10;99.90
47521;DHT22;32291;52.010;4.446;2023-05-14T03:40:11;10.10;99.90
47521;DHT22;32291;52.010;4.446;2023-05-14T03:41:13;10.10;99.90
47521;DHT22;32291;52.010;4.446;2023-05-14T03:42:14;10.10;99.90
47521;DHT22;32291;52.010;4.446;2023-05-14T03:43:16;10.00;99.90
47521;DHT22;32291;52.010;4.446;2023-05-14T03:44:18;10.10;99.90
47521;DHT22;32291;52.010;4.446;2023-05-14T03:45:20;10.10;99.90
47521;DHT22;32291;52.010;4.446;2023-05-14T03:46:22;10.10;99.90
47521;DHT22;32291;52.010;4.446;2023-05-14T03:47:24;10.10;99.90
47521;DHT22;32291;52.010;4.446;2023-05-14T03:48:26;10.10;99.90
47521;DHT22;32291;52.010;4.446;2023-05-14T03:49:28;10.10;99.90
47521;DHT22;32291;52.010;4.446;2023-05-14T03:50:30;10.10;99.90
47521;DHT22;32291;52.010;4.446;2023-05-14T03:51:31;10.10;99.90
47521;DHT22;32291;52.010;4.446;2023-05-14T03:52:33;10.10;99.90
47521;DHT22;32291;52.010;4.446;2023-05-14T03:53:35;10.10;99.90
47521;DHT22;32291;52.010;4.446;2023-05-14T03:54:36;10.10;99.90
47521;DHT22;32291;52.010;4.446;2023-05-14T03:55:39;10.20;99.90
47521;DHT22;32291;52.010;4.446;2023-05-14T03:56:41;10.10;99.90
47521;DHT22;32291;52.010;4.446;2023-05-14T03:57:43;10.20;99.90
47521;DHT22;32291;52.010;4.446;2023-05-14T03:58:45;10.20;99.90
47521;DHT22;32291;52.010;4.446;2023-05-14T03:59:46;10.20;99.90
47521;DHT22;32291;52.010;4.446;2023-05-14T04:00:48;10.20;99.90
47521;DHT22;32291;52.010;4.446;2023-05-14T04:01:50;10.30;99.90
47521;DHT22;32291;52.010;4.446;2023-05-14T04:02:51;10.20;99.90
47521;DHT22;32291;52.010;4.446;2023-05-14T04:03:53;10.20;99.90
47521;DHT22;32291;52.010;4.446;2023-05-14T04:04:56;10.20;99.90
47521;DHT22;32291;52.010;4.446;2023-05-14T04:05:57;10.30;99.90
47521;DHT22;32291;52.010;4.446;2023-05-14T04:07:00;10.30;99.90
47521;DHT22;32291;52.010;4.446;2023-05-14T04:08:01;10.30;99.90
47521;DHT22;32291;52.010;4.446;2023-05-14T04:09:03;10.30;99.90
47521;DHT22;32291;52.010;4.446;2023-05-14T04:10:05;10.20;99.90
47521;DHT22;32291;52.010;4.446;2023-05-14T04:11:07;10.30;99.90
47521;DHT22;32291;52.010;4.446;2023-05-14T04:12:10;10.30;99.90
47521;DHT22;32291;52.010;4.446;2023-05-14T04:13:12;10.30;99.90
47521;DHT22;32291;52.010;4.446;2023-05-14T04:14:14;10.30;99.90
47521;DHT22;32291;52.010;4.446;2023-05-14T04:15:17;10.30;99.90
47521;DHT22;32291;52.010;4.446;2023-05-14T04:16:18;10.30;99.90
47521;DHT22;32291;52.010;4.446;2023-05-14T04:17:20;10.30;99.90
47521;DHT22;32291;52.010;4.446;2023-05-14T04:18:22;10.30;99.90
47521;DHT22;32291;52.010;4.446;2023-05-14T04:19:24;10.40;99.90
47521;DHT22;32291;52.010;4.446;2023-05-14T04:20:26;10.30;99.90
47521;DHT22;32291;52.010;4.446;2023-05-14T04:21:27;10.40;99.90
47521;DHT22;32291;52.010;4.446;2023-05-14T04:22:29;10.40;99.90
47521;DHT22;32291;52.010;4.446;2023-05-14T04:23:31;10.40;99.90
47521;DHT22;32291;52.010;4.446;2023-05-14T04:24:33;10.40;99.90
47521;DHT22;32291;52.010;4.446;2023-05-14T04:25:34;10.40;99.90
47521;DHT22;32291;52.010;4.446;2023-05-14T04:26:36;10.50;99.90
47521;DHT22;32291;52.010;4.446;2023-05-14T04:27:39;10.50;99.90
47521;DHT22;32291;52.010;4.446;2023-05-14T04:28:40;10.60;99.90
47521;DHT22;32291;52.010;4.446;2023-05-14T04:29:42;10.50;99.90
47521;DHT22;32291;52.010;4.446;2023-05-14T04:30:43;10.60;99.90
47521;DHT22;32291;52.010;4.446;2023-05-14T04:31:45;10.60;99.90
47521;DHT22;32291;52.010;4.446;2023-05-14T04:32:47;10.60;99.90
47521;DHT22;32291;52.010;4.446;2023-05-14T04:33:49;10.70;99.90
47521;DHT22;32291;52.010;4.446;2023-05-14T04:34:50;10.60;99.90
47521;DHT22;32291;52.010;4.446;2023-05-14T04:35:52;10.60;99.90
47521;DHT22;32291;52.010;4.446;2023-05-14T04:36:54;10.70;99.90
47521;DHT22;32291;52.010;4.446;2023-05-14T04:37:55;10.70;99.90
47521;DHT22;32291;52.010;4.446;2023-05-14T04:38:57;10.70;99.90
47521;DHT22;32291;52.010;4.446;2023-05-14T04:39:59;10.70;99.90
47521;DHT22;32291;52.010;4.446;2023-05-14T04:41:01;10.80;99.90
47521;DHT22;32291;52.010;4.446;2023-05-14T04:42:03;10.80;99.90
47521;DHT22;32291;52.010;4.446;2023-05-14T04:43:07;10.80;99.90
47521;DHT22;32291;52.010;4.446;2023-05-14T04:44:11;10.80;99.90
47521;DHT22;32291;52.010;4.446;2023-05-14T04:45:13;10.90;99.90
47521;DHT22;32291;52.010;4.446;2023-05-14T04:46:15;10.90;99.90
47521;DHT22;32291;52.010;4.446;2023-05-14T04:47:17;10.90;99.90
47521;DHT22;32291;52.010;4.446;2023-05-14T04:48:18;10.90;99.90
47521;DHT22;32291;52.010;4.446;2023-05-14T04:49:20;10.90;99.90
47521;DHT22;32291;52.010;4.446;2023-05-14T04:50:21;11.00;99.90
47521;DHT22;32291;52.010;4.446;2023-05-14T04:51:23;11.00;99.90
47521;DHT22;32291;52.010;4.446;2023-05-14T04:52:27;11.00;99.90
47521;DHT22;32291;52.010;4.446;2023-05-14T04:53:28;11.00;99.90
47521;DHT22;32291;52.010;4.446;2023-05-14T04:54:30;11.10;99.90
47521;DHT22;32291;52.010;4.446;2023-05-14T04:55:31;11.10;99.90
47521;DHT22;32291;52.010;4.446;2023-05-14T04:56:33;11.10;99.90
47521;DHT22;32291;52.010;4.446;2023-05-14T04:57:35;11.20;99.90
47521;DHT22;32291;52.010;4.446;2023-05-14T04:58:37;11.20;99.90
47521;DHT22;32291;52.010;4.446;2023-05-14T04:59:38;11.30;99.90
47521;DHT22;32291;52.010;4.446;2023-05-14T05:00:40;11.30;99.90
47521;DHT22;32291;52.010;4.446;2023-05-14T05:01:42;11.40;99.90
47521;DHT22;32291;52.010;4.446;2023-05-14T05:02:43;11.40;99.90
47521;DHT22;32291;52.010;4.446;2023-05-14T05:03:45;11.50;99.90
47521;DHT22;32291;52.010;4.446;2023-05-14T05:04:47;11.50;99.90
47521;DHT22;32291;52.010;4.446;2023-05-14T05:05:48;11.50;99.90
47521;DHT22;32291;52.010;4.446;2023-05-14T05:06:51;11.50;99.90
47521;DHT22;32291;52.010;4.446;2023-05-14T05:07:53;11.50;99.90
47521;DHT22;32291;52.010;4.446;2023-05-14T05:08:55;11.50;99.90
47521;DHT22;32291;52.010;4.446;2023-05-14T05:09:57;11.50;99.90
47521;DHT22;32291;52.010;4.446;2023-05-14T05:10:59;11.60;99.90
47521;DHT22;32291;52.010;4.446;2023-05-14T05:12:00;11.60;99.90
47521;DHT22;32291;52.010;4.446;2023-05-14T05:13:02;11.50;99.90
47521;DHT22;32291;52.010;4.446;2023-05-14T05:14:04;11.60;99.90
47521;DHT22;32291;52.010;4.446;2023-05-14T05:15:06;11.60;99.90
47521;DHT22;32291;52.010;4.446;2023-05-14T05:16:09;11.60;99.90
47521;DHT22;32291;52.010;4.446;2023-05-14T05:17:12;11.60;99.90
47521;DHT22;32291;52.010;4.446;2023-05-14T05:18:14;11.70;99.90
47521;DHT22;32291;52.010;4.446;2023-05-14T05:19:16;11.70;99.90
47521;DHT22;32291;52.010;4.446;2023-05-14T05:20:18;11.70;99.90
47521;DHT22;32291;52.010;4.446;2023-05-14T05:21:20;11.70;99.90
47521;DHT22;32291;52.010;4.446;2023-05-14T05:22:22;11.70;99.90
47521;DHT22;32291;52.010;4.446;2023-05-14T05:23:24;11.70;99.90
47521;DHT22;32291;52.010;4.446;2023-05-14T05:24:26;11.70;99.90
47521;DHT22;32291;52.010;4.446;2023-05-14T05:25:29;11.80;99.90
47521;DHT22;32291;52.010;4.446;2023-05-14T05:26:30;11.90;99.90
47521;DHT22;32291;52.010;4.446;2023-05-14T05:27:32;11.90;99.90
47521;DHT22;32291;52.010;4.446;2023-05-14T05:28:33;11.90;99.90
47521;DHT22;32291;52.010;4.446;2023-05-14T05:29:35;11.90;99.90
47521;DHT22;32291;52.010;4.446;2023-05-14T05:30:38;11.90;99.90
47521;DHT22;32291;52.010;4.446;2023-05-14T05:31:41;11.90;99.90
47521;DHT22;32291;52.010;4.446;2023-05-14T05:32:42;12.00;99.90
47521;DHT22;32291;52.010;4.446;2023-05-14T05:33:44;12.10;99.90
47521;DHT22;32291;52.010;4.446;2023-05-14T05:34:45;12.10;99.90
47521;DHT22;32291;52.010;4.446;2023-05-14T05:35:47;12.10;99.90
47521;DHT22;32291;52.010;4.446;2023-05-14T05:36:50;12.10;99.90
47521;DHT22;32291;52.010;4.446;2023-05-14T05:37:52;12.20;99.90
47521;DHT22;32291;52.010;4.446;2023-05-14T05:38:54;12.20;99.90
47521;DHT22;32291;52.010;4.446;2023-05-14T05:39:56;12.20;99.90
47521;DHT22;32291;52.010;4.446;2023-05-14T05:40:58;12.20;99.90
47521;DHT22;32291;52.010;4.446;2023-05-14T05:42:00;12.20;99.90
47521;DHT22;32291;52.010;4.446;2023-05-14T05:43:02;12.20;99.90
47521;DHT22;32291;52.010;4.446;2023-05-14T05:44:04;12.20;99.90
47521;DHT22;32291;52.010;4.446;2023-05-14T05:45:06;12.20;99.90
47521;DHT22;32291;52.010;4.446;2023-05-14T05:46:08;12.20;99.90
47521;DHT22;32291;52.010;4.446;2023-05-14T05:47:11;12.20;99.90
47521;DHT22;32291;52.010;4.446;2023-05-14T05:48:13;12.20;99.90
47521;DHT22;32291;52.010;4.446;2023-05-14T05:49:14;12.30;99.90
47521;DHT22;32291;52.010;4.446;2023-05-14T05:50:16;12.30;99.90
47521;DHT22;32291;52.010;4.446;2023-05-14T05:51:18;12.30;99.90
47521;DHT22;32291;52.010;4.446;2023-05-14T05:52:21;12.40;99.90
47521;DHT22;32291;52.010;4.446;2023-05-14T05:53:22;12.40;99.90
47521;DHT22;32291;52.010;4.446;2023-05-14T05:54:24;12.40;99.90
47521;DHT22;32291;52.010;4.446;2023-05-14T05:55:25;12.40;99.90
47521;DHT22;32291;52.010;4.446;2023-05-14T05:56:27;12.40;99.90
47521;DHT22;32291;52.010;4.446;2023-05-14T05:57:29;12.40;99.90
47521;DHT22;32291;52.010;4.446;2023-05-14T05:58:31;12.40;99.90
47521;DHT22;32291;52.010;4.446;2023-05-14T05:59:33;12.50;99.90
47521;DHT22;32291;52.010;4.446;2023-05-14T06:00:35;12.50;99.90
47521;DHT22;32291;52.010;4.446;2023-05-14T06:01:37;12.50;99.90
47521;DHT22;32291;52.010;4.446;2023-05-14T06:02:41;12.60;99.90
47521;DHT22;32291;52.010;4.446;2023-05-14T06:03:43;12.60;99.90
47521;DHT22;32291;52.010;4.446;2023-05-14T06:04:45;12.60;99.90
47521;DHT22;32291;52.010;4.446;2023-05-14T06:05:47;12.60;99.90
47521;DHT22;32291;52.010;4.446;2023-05-14T06:06:49;12.70;99.90
47521;DHT22;32291;52.010;4.446;2023-05-14T06:07:50;12.70;99.90
47521;DHT22;32291;52.010;4.446;2023-05-14T06:08:53;12.60;99.90
47521;DHT22;32291;52.010;4.446;2023-05-14T06:09:55;12.70;99.90
47521;DHT22;32291;52.010;4.446;2023-05-14T06:10:57;12.60;99.90
47521;DHT22;32291;52.010;4.446;2023-05-14T06:11:58;12.60;99.90
47521;DHT22;32291;52.010;4.446;2023-05-14T06:13:00;12.60;99.90
47521;DHT22;32291;52.010;4.446;2023-05-14T06:14:02;12.60;99.90
47521;DHT22;32291;52.010;4.446;2023-05-14T06:15:04;12.50;99.90
47521;DHT22;32291;52.010;4.446;2023-05-14T06:16:06;12.50;99.90
47521;DHT22;32291;52.010;4.446;2023-05-14T06:17:08;12.70;99.90
47521;DHT22;32291;52.010;4.446;2023-05-14T06:18:10;12.60;99.90
47521;DHT22;32291;52.010;4.446;2023-05-14T06:19:11;12.60;99.90
47521;DHT22;32291;52.010;4.446;2023-05-14T06:20:14;12.70;99.90
47521;DHT22;32291;52.010;4.446;2023-05-14T06:21:16;12.70;99.90
47521;DHT22;32291;52.010;4.446;2023-05-14T06:22:18;12.80;99.90
47521;DHT22;32291;52.010;4.446;2023-05-14T06:23:20;12.80;99.90
47521;DHT22;32291;52.010;4.446;2023-05-14T06:24:21;12.80;99.90
47521;DHT22;32291;52.010;4.446;2023-05-14T06:25:23;12.90;99.90
47521;DHT22;32291;52.010;4.446;2023-05-14T06:26:25;13.00;99.90
47521;DHT22;32291;52.010;4.446;2023-05-14T06:27:27;13.00;99.90
47521;DHT22;32291;52.010;4.446;2023-05-14T06:28:29;13.10;99.90
47521;DHT22;32291;52.010;4.446;2023-05-14T06:29:31;13.00;99.90
47521;DHT22;32291;52.010;4.446;2023-05-14T06:30:33;13.10;99.90
47521;DHT22;32291;52.010;4.446;2023-05-14T06:31:35;13.20;99.90
47521;DHT22;32291;52.010;4.446;2023-05-14T06:32:37;13.20;99.90
47521;DHT22;32291;52.010;4.446;2023-05-14T06:33:39;13.20;99.90
47521;DHT22;32291;52.010;4.446;2023-05-14T06:34:43;13.30;99.90
47521;DHT22;32291;52.010;4.446;2023-05-14T06:35:45;13.40;99.90
47521;DHT22;32291;52.010;4.446;2023-05-14T06:36:47;13.40;99.90
47521;DHT22;32291;52.010;4.446;2023-05-14T06:37:48;13.40;99.90
47521;DHT22;32291;52.010;4.446;2023-05-14T06:38:50;13.40;99.90
47521;DHT22;32291;52.010;4.446;2023-05-14T06:39:51;13.50;99.90